createdAt,value
2022-11-08T00:01:51.384Z,13.40
2022-11-08T00:04:21.094Z,13.30
2022-11-08T00:10:07.113Z,13.30
2022-11-08T00:12:55.601Z,13.40
2022-11-08T00:15:23.574Z,13.30
2022-11-08T00:17:50.499Z,13.30
2022-11-08T00:20:49.532Z,13.30
2022-11-08T00:23:19.936Z,13.30
2022-11-08T00:25:54.885Z,13.40
2022-11-08T00:28:26.962Z,13.30
2022-11-08T00:30:55.061Z,13.30
2022-11-08T00:33:25.032Z,13.20
2022-11-08T00:35:52.228Z,13.20
2022-11-08T00:38:19.472Z,13.30
2022-11-08T00:40:50.161Z,13.20
2022-11-08T00:43:18.044Z,13.20
2022-11-08T00:45:48.199Z,13.20
2022-11-08T00:48:16.112Z,13.10
2022-11-08T00:50:48.564Z,13.10
2022-11-08T00:53:15.472Z,13.20
2022-11-08T00:55:42.445Z,13.10
2022-11-08T00:58:12.303Z,13.10
2022-11-08T01:00:42.559Z,13.10
2022-11-08T01:03:21.247Z,13.00
2022-11-08T01:05:49.130Z,13.00
2022-11-08T01:08:17.682Z,12.90
2022-11-08T01:10:48.583Z,12.90
2022-11-08T01:13:17.817Z,12.80
2022-11-08T01:15:48.973Z,12.80
2022-11-08T01:18:20.767Z,12.80
2022-11-08T01:20:49.799Z,12.80
2022-11-08T01:23:19.751Z,12.80
2022-11-08T01:25:50.906Z,12.70
2022-11-08T01:28:20.108Z,12.70
2022-11-08T01:30:48.372Z,12.70
2022-11-08T01:33:19.610Z,12.70
2022-11-08T01:35:49.772Z,12.70
2022-11-08T01:38:17.068Z,12.70
2022-11-08T01:40:50.026Z,12.60
2022-11-08T01:43:31.069Z,12.60
2022-11-08T01:46:13.373Z,12.60
2022-11-08T01:48:55.649Z,12.70
2022-11-08T01:51:27.748Z,12.60
2022-11-08T01:53:54.707Z,12.60
2022-11-08T01:56:21.684Z,12.60
2022-11-08T01:58:53.256Z,12.60
2022-11-08T02:01:21.267Z,12.60
2022-11-08T02:03:49.812Z,12.70
2022-11-08T02:06:18.222Z,12.60
2022-11-08T02:08:45.655Z,12.70
2022-11-08T02:11:14.910Z,12.70
2022-11-08T02:13:42.243Z,12.70
2022-11-08T02:16:14.987Z,12.70
2022-11-08T02:18:46.695Z,12.70
2022-11-08T02:21:46.962Z,12.70
2022-11-08T02:24:15.026Z,12.70
2022-11-08T02:26:43.159Z,12.60
2022-11-08T02:29:23.162Z,12.60
2022-11-08T02:31:50.301Z,12.60
2022-11-08T02:34:23.815Z,12.60
2022-11-08T02:36:52.226Z,12.60
2022-11-08T02:39:19.384Z,12.60
2022-11-08T02:41:46.269Z,12.60
2022-11-08T02:44:13.549Z,12.60
2022-11-08T02:46:40.598Z,12.50
2022-11-08T02:49:09.300Z,12.60
2022-11-08T02:51:37.339Z,12.50
2022-11-08T02:54:04.254Z,12.50
2022-11-08T02:56:32.649Z,12.50
2022-11-08T02:58:59.461Z,12.50
2022-11-08T03:01:26.574Z,12.50
2022-11-08T03:03:55.032Z,12.50
2022-11-08T03:06:23.313Z,12.40
2022-11-08T03:08:50.211Z,12.50
2022-11-08T03:11:17.008Z,12.40
2022-11-08T03:13:44.937Z,12.40
2022-11-08T03:16:11.720Z,12.50
2022-11-08T03:18:39.800Z,12.40
2022-11-08T03:21:08.117Z,12.40
2022-11-08T03:23:36.320Z,12.40
2022-11-08T03:26:04.224Z,12.30
2022-11-08T03:28:32.616Z,12.30
2022-11-08T03:30:59.437Z,12.40
2022-11-08T03:33:27.640Z,12.40
2022-11-08T03:35:54.522Z,12.30
2022-11-08T03:38:26.623Z,12.30
2022-11-08T03:40:53.731Z,12.30
2022-11-08T03:43:20.650Z,12.40
2022-11-08T03:45:48.766Z,12.40
2022-11-08T03:48:17.942Z,12.40
2022-11-08T03:50:47.040Z,12.40
2022-11-08T03:53:15.025Z,12.40
2022-11-08T03:55:42.275Z,12.40
2022-11-08T03:58:09.928Z,12.30
2022-11-08T04:00:36.781Z,12.30
2022-11-08T04:03:04.244Z,12.20
2022-11-08T04:05:32.414Z,12.30
2022-11-08T04:08:00.878Z,12.30
2022-11-08T04:10:28.873Z,12.30
2022-11-08T04:13:18.634Z,12.20
2022-11-08T04:15:46.778Z,12.30
2022-11-08T04:18:32.279Z,12.30
2022-11-08T04:21:19.911Z,12.30
2022-11-08T04:23:48.820Z,12.20
2022-11-08T04:26:17.960Z,12.20
2022-11-08T04:28:44.881Z,12.20
2022-11-08T04:31:16.474Z,12.20
2022-11-08T04:33:45.023Z,12.20
2022-11-08T04:36:14.831Z,12.20
2022-11-08T04:38:43.262Z,12.20
2022-11-08T04:41:16.153Z,12.20
2022-11-08T04:43:43.672Z,12.30
2022-11-08T04:46:16.256Z,12.30
2022-11-08T04:48:43.695Z,12.30
2022-11-08T04:51:20.996Z,12.30
2022-11-08T04:53:48.438Z,12.30
2022-11-08T04:56:35.588Z,12.40
2022-11-08T04:59:05.238Z,12.30
2022-11-08T05:01:41.762Z,12.30
2022-11-08T05:04:35.147Z,12.30
2022-11-08T05:07:04.289Z,12.40
2022-11-08T05:09:34.529Z,12.40
2022-11-08T05:12:02.421Z,12.40
2022-11-08T05:14:39.500Z,12.30
2022-11-08T05:17:09.954Z,12.40
2022-11-08T05:19:56.531Z,12.40
2022-11-08T05:22:42.223Z,12.40
2022-11-08T05:25:10.899Z,12.40
2022-11-08T05:27:46.299Z,12.40
2022-11-08T05:30:14.802Z,12.30
2022-11-08T05:32:43.182Z,12.30
2022-11-08T05:35:14.219Z,12.30
2022-11-08T05:37:45.816Z,12.30
2022-11-08T05:40:17.463Z,12.30
2022-11-08T05:42:44.330Z,12.30
2022-11-08T05:45:11.201Z,12.40
2022-11-08T05:47:38.682Z,12.30
2022-11-08T05:50:07.569Z,12.40
2022-11-08T05:52:35.482Z,12.30
2022-11-08T05:55:04.015Z,12.40
2022-11-08T05:57:37.943Z,12.40
2022-11-08T06:00:06.365Z,12.40
2022-11-08T06:02:40.040Z,12.40
2022-11-08T06:05:08.408Z,12.40
2022-11-08T06:07:37.554Z,12.40
2022-11-08T06:10:05.853Z,12.50
2022-11-08T06:12:32.748Z,12.40
2022-11-08T06:15:01.625Z,12.50
2022-11-08T06:17:30.218Z,12.50
2022-11-08T06:19:57.372Z,12.50
2022-11-08T06:22:25.242Z,12.50
2022-11-08T06:24:52.611Z,12.50
2022-11-08T06:27:24.951Z,12.50
2022-11-08T06:29:52.486Z,12.50
2022-11-08T06:32:22.872Z,12.50
2022-11-08T06:34:51.158Z,12.50
2022-11-08T06:37:24.480Z,12.50
2022-11-08T06:39:52.587Z,12.50
2022-11-08T06:42:19.297Z,12.50
2022-11-08T06:44:46.252Z,12.50
2022-11-08T06:47:14.658Z,12.50
2022-11-08T06:49:41.513Z,12.50
2022-11-08T06:52:08.763Z,12.50
2022-11-08T06:54:35.635Z,12.50
2022-11-08T06:57:02.922Z,12.40
2022-11-08T06:59:29.880Z,12.40
2022-11-08T07:01:57.289Z,12.40
2022-11-08T07:04:25.611Z,12.40
2022-11-08T07:06:52.944Z,12.40
2022-11-08T07:09:19.871Z,12.40
2022-11-08T07:11:47.463Z,12.40
2022-11-08T07:14:16.611Z,12.40
2022-11-08T07:16:47.731Z,12.40
2022-11-08T07:19:19.589Z,12.40
2022-11-08T07:21:49.067Z,12.40
2022-11-08T07:24:18.611Z,12.50
2022-11-08T07:26:54.602Z,12.40
2022-11-08T07:29:21.444Z,12.50
2022-11-08T07:31:48.283Z,12.40
2022-11-08T07:34:17.807Z,12.40
2022-11-08T07:36:52.632Z,12.50
2022-11-08T07:39:25.261Z,12.60
2022-11-08T07:45:02.512Z,12.50
2022-11-08T07:47:29.652Z,12.50
2022-11-08T07:55:24.974Z,12.70
2022-11-08T07:57:54.311Z,12.70
2022-11-08T08:00:28.532Z,12.70
2022-11-08T08:03:05.277Z,12.70
2022-11-08T08:05:36.550Z,12.70
2022-11-08T08:08:04.010Z,12.70
2022-11-08T08:10:32.769Z,12.80
2022-11-08T08:15:43.586Z,12.90
2022-11-08T08:20:58.229Z,12.90
2022-11-08T08:23:26.423Z,12.90
2022-11-08T08:26:20.056Z,12.90
2022-11-08T08:28:46.921Z,13.10
2022-11-08T08:31:13.803Z,13.10
2022-11-08T08:33:44.215Z,13.10
2022-11-08T08:36:11.050Z,13.30
2022-11-08T08:41:28.514Z,13.30
2022-11-08T08:43:58.691Z,13.40
2022-11-08T08:46:26.015Z,13.40
2022-11-08T08:48:56.692Z,13.50
2022-11-08T08:51:23.579Z,13.50
2022-11-08T08:53:50.376Z,13.50
2022-11-08T08:56:21.298Z,13.60
2022-11-08T09:04:05.274Z,13.70
2022-11-08T09:06:32.941Z,13.70
2022-11-08T09:11:41.317Z,13.80
2022-11-08T09:14:11.650Z,13.80
2022-11-08T09:16:38.410Z,13.80
2022-11-08T09:19:05.258Z,14.00
2022-11-08T09:21:38.165Z,14.00
2022-11-08T09:24:07.025Z,14.10
2022-11-08T09:26:35.886Z,14.10
2022-11-08T09:29:02.642Z,14.10
2022-11-08T09:31:30.771Z,14.20
2022-11-08T09:36:35.755Z,14.30
2022-11-08T09:39:02.728Z,14.30
2022-11-08T09:41:55.477Z,14.30
2022-11-08T09:44:33.552Z,14.30
2022-11-08T09:47:22.351Z,14.20
2022-11-08T09:50:12.902Z,14.30
2022-11-08T09:52:56.464Z,14.40
2022-11-08T09:55:54.965Z,14.40
2022-11-08T09:58:33.787Z,14.40
2022-11-08T10:01:02.414Z,14.40
2022-11-08T10:03:30.406Z,14.50
2022-11-08T10:06:14.341Z,14.50
2022-11-08T10:09:05.051Z,14.60
2022-11-08T10:12:15.786Z,14.60
2022-11-08T10:14:54.420Z,14.60
2022-11-08T10:17:38.151Z,14.60
2022-11-08T10:26:49.765Z,14.60
2022-11-08T10:32:51.190Z,14.70
2022-11-08T10:35:29.582Z,14.90
2022-11-08T10:41:28.296Z,14.90
2022-11-08T10:44:28.301Z,14.90
2022-11-08T10:47:06.182Z,14.90
2022-11-08T10:49:39.918Z,14.90
2022-11-08T10:52:42.296Z,15.00
2022-11-08T10:55:26.327Z,15.10
2022-11-08T10:57:54.045Z,15.50
2022-11-08T11:00:25.996Z,15.70
2022-11-08T11:03:05.841Z,15.90
2022-11-08T11:05:42.840Z,16.20
2022-11-08T11:08:17.183Z,16.10
2022-11-08T11:10:52.340Z,15.80
2022-11-08T11:16:31.395Z,15.50
2022-11-08T11:19:01.803Z,15.50
2022-11-08T11:21:47.564Z,15.40
2022-11-08T11:24:23.571Z,15.40
2022-11-08T11:26:58.190Z,15.40
2022-11-08T11:29:32.798Z,15.50
2022-11-08T11:32:27.272Z,15.50
2022-11-08T11:37:49.095Z,15.40
2022-11-08T11:40:45.430Z,15.40
2022-11-08T11:43:50.879Z,15.50
2022-11-08T11:47:43.226Z,15.40
2022-11-08T11:50:40.936Z,15.50
2022-11-08T11:53:48.781Z,15.50
2022-11-08T11:56:50.019Z,15.50
2022-11-08T11:59:28.531Z,15.50
2022-11-08T12:02:23.998Z,15.40
2022-11-08T12:05:17.207Z,15.40
2022-11-08T12:08:21.027Z,15.40
2022-11-08T12:14:23.954Z,16.00
2022-11-08T12:17:28.636Z,16.30
2022-11-08T12:20:26.810Z,16.50
2022-11-08T12:23:37.159Z,16.60
2022-11-08T12:26:43.234Z,16.70
2022-11-08T12:29:27.053Z,16.60
2022-11-08T12:39:45.439Z,16.10
2022-11-08T12:43:00.270Z,16.10
2022-11-08T12:45:57.212Z,16.00
2022-11-08T12:49:16.278Z,15.90
2022-11-08T12:54:48.211Z,16.00
2022-11-08T12:57:32.295Z,16.10
2022-11-08T13:00:09.557Z,16.00
2022-11-08T13:02:39.140Z,16.10
2022-11-08T13:05:49.837Z,16.10
2022-11-08T13:08:38.939Z,16.30
2022-11-08T13:11:13.406Z,16.20
2022-11-08T13:13:50.229Z,16.10
2022-11-08T13:16:26.135Z,16.20
2022-11-08T13:19:00.637Z,16.10
2022-11-08T13:21:27.613Z,16.10
2022-11-08T13:24:42.344Z,16.00
2022-11-08T13:27:25.297Z,16.00
2022-11-08T13:30:01.417Z,16.00
2022-11-08T13:33:23.118Z,15.90
2022-11-08T13:36:50.304Z,16.00
2022-11-08T13:39:29.156Z,15.90
2022-11-08T13:42:16.436Z,15.90
2022-11-08T13:45:00.147Z,15.90
2022-11-08T13:47:34.869Z,16.00
2022-11-08T13:50:32.784Z,15.90
2022-11-08T13:53:19.487Z,15.90
2022-11-08T14:03:05.085Z,15.80
2022-11-08T14:05:47.114Z,15.80
2022-11-08T14:08:22.435Z,15.80
2022-11-08T14:11:29.545Z,15.80
2022-11-08T14:14:44.901Z,15.80
2022-11-08T14:17:28.327Z,15.90
2022-11-08T14:20:36.414Z,15.90
2022-11-08T14:23:19.662Z,16.00
2022-11-08T14:26:21.223Z,16.00
2022-11-08T14:28:52.912Z,15.90
2022-11-08T14:31:48.151Z,15.90
2022-11-08T14:34:41.370Z,15.90
2022-11-08T14:37:20.124Z,16.00
2022-11-08T14:39:48.594Z,16.00
2022-11-08T14:42:26.341Z,16.00
2022-11-08T14:44:55.545Z,16.00
2022-11-08T14:47:54.345Z,16.10
2022-11-08T14:50:25.442Z,16.00
2022-11-08T14:52:53.603Z,16.00
2022-11-08T14:55:33.184Z,16.00
2022-11-08T14:58:20.994Z,15.90
2022-11-08T15:00:52.410Z,15.90
2022-11-08T15:03:21.402Z,15.90
2022-11-08T15:05:56.840Z,15.90
2022-11-08T15:11:11.365Z,15.90
2022-11-08T15:13:50.317Z,15.90
2022-11-08T15:16:19.736Z,15.90
2022-11-08T15:18:48.067Z,15.90
2022-11-08T15:21:39.688Z,15.90
2022-11-08T15:24:16.365Z,15.90
2022-11-08T15:27:16.260Z,15.90
2022-11-08T15:30:03.786Z,15.80
2022-11-08T15:32:37.355Z,15.80
2022-11-08T15:35:11.037Z,15.80
2022-11-08T15:37:42.808Z,15.70
2022-11-08T15:40:21.687Z,15.70
2022-11-08T15:42:52.215Z,15.70
2022-11-08T15:45:26.064Z,15.70
2022-11-08T15:48:02.637Z,15.60
2022-11-08T15:50:32.384Z,15.60
2022-11-08T15:53:03.280Z,15.60
2022-11-08T15:55:36.839Z,15.60
2022-11-08T15:58:04.794Z,15.60
2022-11-08T16:00:36.396Z,15.50
2022-11-08T16:03:08.021Z,15.50
2022-11-08T16:05:35.647Z,15.50
2022-11-08T16:08:03.252Z,15.50
2022-11-08T16:10:41.087Z,15.50
2022-11-08T16:13:16.020Z,15.50
2022-11-08T16:15:47.402Z,15.40
2022-11-08T16:18:15.810Z,15.40
2022-11-08T16:20:43.063Z,15.40
2022-11-08T16:23:11.783Z,15.40
2022-11-08T16:25:53.066Z,15.30
2022-11-08T16:28:37.989Z,15.30
2022-11-08T16:31:16.197Z,15.30
2022-11-08T16:34:01.991Z,15.30
2022-11-08T16:36:31.474Z,15.30
2022-11-08T16:39:01.729Z,15.20
2022-11-08T16:41:29.793Z,15.20
2022-11-08T16:43:56.625Z,15.20
2022-11-08T16:46:24.491Z,15.30
2022-11-08T16:49:01.122Z,15.20
2022-11-08T16:51:54.544Z,15.20
2022-11-08T16:54:28.684Z,15.30
2022-11-08T16:57:20.621Z,15.30
2022-11-08T16:59:44.884Z,15.20
2022-11-08T17:02:29.613Z,15.20
2022-11-08T17:04:57.564Z,15.30
2022-11-08T17:07:30.268Z,15.30
2022-11-08T17:09:58.347Z,15.30
2022-11-08T17:12:26.659Z,15.30
2022-11-08T17:14:56.188Z,15.30
2022-11-08T17:17:23.486Z,15.30
2022-11-08T17:19:52.416Z,15.30
2022-11-08T17:22:22.824Z,15.30
2022-11-08T17:24:49.822Z,15.30
2022-11-08T17:27:20.187Z,15.30
2022-11-08T17:29:50.318Z,15.30
2022-11-08T17:32:17.213Z,15.30
2022-11-08T17:34:44.186Z,15.30
2022-11-08T17:37:11.365Z,15.30
2022-11-08T17:39:38.323Z,15.30
2022-11-08T17:42:05.312Z,15.30
2022-11-08T17:44:33.702Z,15.30
2022-11-08T17:47:01.658Z,15.30
2022-11-08T17:49:29.514Z,15.30
2022-11-08T17:51:56.460Z,15.30
2022-11-08T17:54:23.260Z,15.30
2022-11-08T17:56:50.451Z,15.30
2022-11-08T17:59:17.542Z,15.30
2022-11-08T18:01:44.498Z,15.30
2022-11-08T18:04:12.058Z,15.30
2022-11-08T18:06:39.025Z,15.30
2022-11-08T18:09:07.431Z,15.40
2022-11-08T18:11:34.750Z,15.40
2022-11-08T18:14:02.204Z,15.40
2022-11-08T18:16:29.849Z,15.50
2022-11-08T18:18:58.067Z,15.50
2022-11-08T18:21:25.043Z,15.50
2022-11-08T18:23:53.957Z,15.50
2022-11-08T18:26:20.806Z,15.60
2022-11-08T18:28:48.168Z,15.50
2022-11-08T18:31:19.984Z,15.60
2022-11-08T18:33:49.511Z,15.60
2022-11-08T18:36:24.279Z,15.60
2022-11-08T18:38:52.531Z,15.60
2022-11-08T18:41:22.614Z,15.60
2022-11-08T18:43:50.189Z,15.60
2022-11-08T18:46:21.137Z,15.70
2022-11-08T18:48:49.475Z,15.70
2022-11-08T18:51:18.508Z,15.70
2022-11-08T18:53:45.655Z,15.70
2022-11-08T18:56:13.631Z,15.70
2022-11-08T18:58:41.145Z,15.70
2022-11-08T19:01:08.229Z,15.70
2022-11-08T19:03:36.232Z,15.80
2022-11-08T19:06:04.484Z,15.70
2022-11-08T19:08:32.551Z,15.70
2022-11-08T19:11:12.375Z,15.70
2022-11-08T19:13:42.988Z,15.70
2022-11-08T19:16:18.887Z,15.70
2022-11-08T19:18:50.128Z,15.70
2022-11-08T19:21:23.464Z,15.70
2022-11-08T19:23:56.397Z,15.70
2022-11-08T19:26:26.755Z,15.80
2022-11-08T19:29:03.108Z,15.80
2022-11-08T19:31:32.248Z,15.70
2022-11-08T19:34:33.028Z,15.70
2022-11-08T19:37:15.859Z,15.70
2022-11-08T19:39:45.010Z,15.80
2022-11-08T19:42:15.654Z,15.80
2022-11-08T19:44:45.800Z,15.80
2022-11-08T19:47:17.332Z,15.80
2022-11-08T19:49:45.092Z,15.80
2022-11-08T19:52:12.096Z,15.80
2022-11-08T19:54:40.263Z,15.70
2022-11-08T19:57:09.779Z,15.70
2022-11-08T19:59:38.537Z,15.70
2022-11-08T20:02:06.781Z,15.70
2022-11-08T20:04:37.028Z,15.70
2022-11-08T20:07:09.052Z,15.70
2022-11-08T20:09:37.304Z,15.60
2022-11-08T20:12:05.766Z,15.60
2022-11-08T20:14:35.691Z,15.60
2022-11-08T20:17:04.235Z,15.60
2022-11-08T20:19:50.109Z,15.50
2022-11-08T20:22:17.299Z,15.50
2022-11-08T20:24:44.274Z,15.50
2022-11-08T20:27:15.210Z,15.50
2022-11-08T20:29:46.360Z,15.50
2022-11-08T20:32:14.926Z,15.50
2022-11-08T20:35:55.551Z,15.50
2022-11-08T20:38:22.549Z,15.50
2022-11-08T20:40:49.414Z,15.50
2022-11-08T20:43:25.773Z,15.50
2022-11-08T20:46:24.114Z,15.50
2022-11-08T20:48:51.236Z,15.40
2022-11-08T20:51:23.121Z,15.40
2022-11-08T20:54:04.784Z,15.40
2022-11-08T20:56:37.716Z,15.40
2022-11-08T20:59:08.197Z,15.40
2022-11-08T21:01:41.730Z,15.40
2022-11-08T21:04:12.127Z,15.40
2022-11-08T21:06:40.699Z,15.30
2022-11-08T21:09:34.646Z,15.30
2022-11-08T21:11:58.381Z,15.40
2022-11-08T21:14:25.819Z,15.30
2022-11-08T21:19:41.272Z,15.30
2022-11-08T21:22:17.469Z,15.20
2022-11-08T21:24:49.278Z,15.30
2022-11-08T21:27:16.887Z,15.20
2022-11-08T21:29:43.934Z,15.20
2022-11-08T21:32:12.688Z,15.10
2022-11-08T21:34:45.382Z,15.10
2022-11-08T21:37:13.588Z,15.20
2022-11-08T21:42:27.814Z,15.10
2022-11-08T21:44:58.242Z,15.20
2022-11-08T21:47:25.243Z,15.10
2022-11-08T21:49:52.176Z,15.10
2022-11-08T21:52:21.828Z,15.10
2022-11-08T21:54:49.897Z,15.00
2022-11-08T21:57:17.514Z,15.00
2022-11-08T21:59:45.099Z,15.00
2022-11-08T22:02:12.555Z,15.00
2022-11-08T22:04:39.904Z,14.90
2022-11-08T22:07:06.880Z,15.00
2022-11-08T22:09:35.194Z,15.00
2022-11-08T22:12:03.329Z,15.00
2022-11-08T22:14:31.252Z,15.00
2022-11-08T22:17:02.847Z,14.90
2022-11-08T22:19:30.103Z,14.90
2022-11-08T22:21:57.149Z,14.90
2022-11-08T22:24:24.341Z,14.90
2022-11-08T22:26:52.516Z,14.80
2022-11-08T22:29:20.802Z,14.80
2022-11-08T22:31:50.055Z,14.80
2022-11-08T22:34:21.381Z,14.80
2022-11-08T22:37:37.899Z,14.70
2022-11-08T22:40:05.911Z,14.70
2022-11-08T22:43:27.351Z,14.70
2022-11-08T22:46:01.003Z,14.60
2022-11-08T22:48:32.394Z,14.60
2022-11-08T22:53:45.116Z,14.70
2022-11-08T22:56:13.438Z,14.70
2022-11-08T22:58:52.880Z,14.70
2022-11-08T23:01:25.048Z,14.80
2022-11-08T23:03:54.178Z,14.80
2022-11-08T23:06:24.685Z,14.80
2022-11-08T23:08:54.850Z,14.80
2022-11-08T23:11:42.450Z,14.80
2022-11-08T23:14:33.806Z,14.80
2022-11-08T23:17:06.199Z,14.80
2022-11-08T23:19:53.544Z,14.70
2022-11-08T23:22:42.776Z,14.70
2022-11-08T23:25:11.716Z,14.70
2022-11-08T23:28:22.493Z,14.80
2022-11-08T23:31:07.869Z,14.80
2022-11-08T23:33:35.836Z,14.80
2022-11-08T23:36:12.879Z,14.80
2022-11-08T23:38:41.519Z,14.80
2022-11-08T23:41:30.068Z,14.80
2022-11-08T23:44:17.461Z,14.80
2022-11-08T23:46:46.324Z,14.80
2022-11-08T23:49:13.223Z,14.90
2022-11-08T23:52:05.910Z,14.90
2022-11-08T23:54:32.771Z,14.80
2022-11-08T23:57:00.821Z,14.90
2022-11-08T23:59:29.927Z,14.80
